Time;durP1;ratioP1;P1;durP2;ratioP2;P2;SDS_P1;SDS_P2;PMS_P1;PMS_P2;Temp;Humidity;BMP_temperature;BMP_pressure;BME280_temperature;BME280_humidity;BME280_pressure;Samples;Min_cycle;Max_cycle;Signal;HPM_P1;HPM_P2
2021/08/19 00:00:50;;;;;;;;;4.67;2.67;;;;;20.52;59.22;101465.03;5122722;27;45396;-91
2021/08/19 00:03:16;;;;;;;;;1.67;1.67;;;;;20.42;59.37;101457.13;5104297;27;45501;-92
2021/08/19 00:05:41;;;;;;;;;3.00;3.00;;;;;20.42;59.25;101461.56;5122372;27;45414;-89
2021/08/19 00:08:07;;;;;;;;;2.00;2.00;;;;;20.48;59.60;101475.75;5122774;27;45401;-93
2021/08/19 00:10:33;;;;;;;;;2.33;2.33;;;;;20.47;59.24;101470.44;5123663;27;45246;-90
2021/08/19 00:12:59;;;;;;;;;3.00;2.00;;;;;20.42;59.44;101459.78;5122531;27;45397;-92
2021/08/19 00:15:25;;;;;;;;;2.67;2.00;;;;;20.34;59.42;101451.00;5122553;27;46254;-90
2021/08/19 00:17:50;;;;;;;;;3.00;3.00;;;;;20.38;59.33;101452.72;5123591;27;45389;-92
2021/08/19 00:20:16;;;;;;;;;3.33;3.00;;;;;20.42;59.55;101465.13;5133079;27;44835;-87
2021/08/19 00:22:41;;;;;;;;;2.00;2.00;;;;;20.31;59.23;101451.91;5127849;27;45322;-95
2021/08/19 00:25:08;;;;;;;;;2.00;2.00;;;;;20.32;59.45;101450.13;5125418;27;46165;-94
2021/08/19 00:27:33;;;;;;;;;1.67;1.67;;;;;20.33;59.34;101459.91;5124027;27;45216;-93
2021/08/19 00:29:58;;;;;;;;;4.67;3.00;;;;;20.24;59.56;101431.53;5104091;27;45468;-92
2021/08/19 00:32:24;;;;;;;;;3.33;3.33;;;;;20.21;59.59;101429.78;5122647;27;45479;-91
2021/08/19 00:34:49;;;;;;;;;2.33;2.33;;;;;20.27;59.63;101433.28;5118529;27;47279;-87
2021/08/19 00:37:15;;;;;;;;;2.67;2.67;;;;;20.22;59.82;101426.19;5134900;27;44759;-87
2021/08/19 00:39:42;;;;;;;;;5.33;3.00;;;;;20.21;59.72;101424.44;5129237;27;45286;-89
2021/08/19 00:42:08;;;;;;;;;1.00;1.00;;;;;20.12;59.82;101413.88;5131418;27;44818;-85
2021/08/19 00:44:33;;;;;;;;;4.00;3.00;;;;;20.12;59.32;101425.44;5131316;27;46289;-87
2021/08/19 00:46:59;;;;;;;;;4.00;2.00;;;;;20.17;59.88;101438.72;5132438;27;45236;-87
2021/08/19 00:49:25;;;;;;;;;3.00;2.00;;;;;20.19;59.82;101438.72;5130873;27;44794;-88
2021/08/19 00:51:53;;;;;;;;;5.00;3.00;;;;;20.16;59.80;101434.28;5131835;27;45298;-89
2021/08/19 00:54:25;;;;;;;;;3.00;3.00;;;;;20.17;59.85;101429.84;5131876;27;45401;-88
2021/08/19 00:57:01;;;;;;;;;2.00;2.00;;;;;20.13;59.75;101435.22;5132285;27;45329;-87
2021/08/19 00:59:31;;;;;;;;;2.33;2.33;;;;;20.06;59.86;101428.16;5133213;27;45432;-87
2021/08/19 01:01:57;;;;;;;;;3.00;3.00;;;;;20.13;59.75;101437.00;5131141;27;45279;-88
2021/08/19 01:04:23;;;;;;;;;2.00;2.00;;;;;20.12;59.83;101445.91;5129112;27;45265;-87
2021/08/19 01:06:49;;;;;;;;;2.00;2.00;;;;;20.09;59.78;101435.28;5113842;27;45452;-87
2021/08/19 01:09:16;;;;;;;;;1.67;1.67;;;;;20.08;59.70;101438.78;5113442;27;45165;-87
2021/08/19 01:11:43;;;;;;;;;2.00;2.00;;;;;19.98;59.65;101425.56;5112656;27;45422;-87
2021/08/19 01:14:12;;;;;;;;;3.00;3.00;;;;;20.01;59.70;101433.53;5132011;27;45365;-87
2021/08/19 01:16:38;;;;;;;;;1.67;1.67;;;;;19.96;59.79;101427.38;5129022;27;45414;-91
2021/08/19 01:19:04;;;;;;;;;2.67;2.00;;;;;19.94;59.75;101418.50;5122504;27;45267;-90
2021/08/19 01:21:29;;;;;;;;;2.67;2.33;;;;;19.90;59.82;101419.44;5121131;27;45394;-89
2021/08/19 01:23:55;;;;;;;;;2.00;2.00;;;;;19.89;59.72;101412.31;5102021;27;47984;-90
2021/08/19 01:26:21;;;;;;;;;3.00;3.00;;;;;19.82;59.84;101407.97;5121580;27;45459;-90
2021/08/19 01:28:49;;;;;;;;;3.67;2.00;;;;;19.90;59.82;101422.09;5120076;27;45405;-92
2021/08/19 01:31:24;;;;;;;;;2.00;2.00;;;;;19.89;59.86;101423.00;5121538;27;45294;-93
2021/08/19 01:33:50;;;;;;;;;3.00;3.00;;;;;19.91;59.80;101423.84;5119922;27;45602;-90
2021/08/19 01:36:15;;;;;;;;;3.33;2.33;;;;;19.84;59.82;101403.50;5121475;27;45313;-88
2021/08/19 01:38:42;;;;;;;;;3.33;2.00;;;;;19.90;59.78;101419.44;5121201;27;45335;-87
2021/08/19 01:41:08;;;;;;;;;3.00;3.00;;;;;19.89;59.64;101414.97;5121301;27;45380;-90
2021/08/19 01:43:36;;;;;;;;;2.67;2.33;;;;;19.75;59.77;101386.69;5120362;27;45547;-89
2021/08/19 01:46:03;;;;;;;;;3.00;2.00;;;;;19.86;59.49;101412.38;5121478;27;45619;-90
2021/08/19 01:48:29;;;;;;;;;2.33;2.33;;;;;19.83;59.52;101401.72;5121448;27;45331;-90
2021/08/19 01:50:55;;;;;;;;;2.00;2.00;;;;;19.82;59.67;101411.50;5103868;27;45668;-88
2021/08/19 01:53:22;;;;;;;;;2.33;2.00;;;;;19.82;59.81;101402.63;5123636;27;45417;-89
2021/08/19 01:55:47;;;;;;;;;2.33;2.00;;;;;19.73;59.72;101401.81;5121162;27;45480;-90
2021/08/19 01:58:13;;;;;;;;;3.00;1.33;;;;;19.76;59.71;101408.88;5109813;27;45435;-88
2021/08/19 02:00:39;;;;;;;;;3.00;1.67;;;;;19.82;59.30;101410.63;5134861;27;44772;-92
2021/08/19 02:03:05;;;;;;;;;1.67;1.00;;;;;19.79;59.62;101412.44;5132073;27;46226;-89
2021/08/19 02:05:30;;;;;;;;;1.33;1.33;;;;;19.73;59.93;101392.94;5122848;27;45812;-92
2021/08/19 02:07:56;;;;;;;;;2.33;2.33;;;;;19.68;59.62;101387.63;5104247;27;45416;-90
2021/08/19 02:10:22;;;;;;;;;2.00;2.00;;;;;19.73;59.57;101404.50;5123633;27;45385;-91
2021/08/19 02:12:47;;;;;;;;;3.00;2.00;;;;;19.77;59.79;101403.56;5102687;27;47176;-90
2021/08/19 02:15:13;;;;;;;;;2.00;2.00;;;;;19.76;59.82;101401.78;5120949;27;45335;-89
2021/08/19 02:17:39;;;;;;;;;1.00;1.00;;;;;19.75;59.66;101402.69;5120754;27;45469;-93
2021/08/19 02:20:05;;;;;;;;;2.33;2.33;;;;;19.74;59.68;101400.91;5120570;27;45295;-90
2021/08/19 02:22:31;;;;;;;;;3.00;2.00;;;;;19.74;59.61;101410.69;5120864;27;45489;-89
2021/08/19 02:24:56;;;;;;;;;2.33;2.33;;;;;19.70;59.84;101401.84;5119490;27;45242;-89
2021/08/19 02:27:22;;;;;;;;;2.33;2.00;;;;;19.63;59.74;101395.69;5119888;27;45104;-87
2021/08/19 02:29:48;;;;;;;;;2.67;2.67;;;;;19.66;59.61;101398.31;5121707;27;45396;-88
2021/08/19 02:32:14;;;;;;;;;2.00;2.00;;;;;19.67;60.10;101391.22;5120988;27;45919;-89
2021/08/19 02:34:40;;;;;;;;;2.33;2.33;;;;;19.61;59.72;101376.13;5124277;27;45440;-87
2021/08/19 02:37:05;;;;;;;;;2.33;2.33;;;;;19.63;59.79;101373.47;5130156;27;45321;-87
2021/08/19 02:39:30;;;;;;;;;2.00;2.00;;;;;19.64;59.37;101375.22;5128154;27;45252;-88
2021/08/19 02:41:56;;;;;;;;;3.00;1.67;;;;;19.62;59.78;101382.38;5126739;27;46391;-89
2021/08/19 02:44:21;;;;;;;;;2.33;2.33;;;;;19.63;59.73;101381.47;5119249;27;45527;-89
2021/08/19 02:46:47;;;;;;;;;2.00;2.00;;;;;19.66;59.50;101385.00;5122904;27;45863;-91
2021/08/19 02:49:12;;;;;;;;;3.33;3.33;;;;;19.62;59.64;101385.03;5124166;27;45500;-89
2021/08/19 02:51:37;;;;;;;;;2.00;2.00;;;;;19.63;59.45;101378.81;5123860;27;46259;-88
2021/08/19 02:54:03;;;;;;;;;1.67;1.67;;;;;19.56;59.53;101373.50;5124272;27;45236;-91
2021/08/19 02:56:28;;;;;;;;;4.00;1.00;;;;;19.56;59.40;101381.50;5125079;27;45263;-90
2021/08/19 02:58:54;;;;;;;;;2.00;2.00;;;;;19.57;59.40;101379.75;5129233;27;45225;-86
2021/08/19 03:01:20;;;;;;;;;3.00;2.00;;;;;19.58;59.47;101381.53;5130129;27;47475;-89
2021/08/19 03:03:45;;;;;;;;;2.00;2.00;;;;;19.56;59.49;101375.31;5106047;27;45284;-90
2021/08/19 03:06:10;;;;;;;;;1.33;1.33;;;;;19.50;59.62;101368.25;5123983;27;45350;-89
2021/08/19 03:08:36;;;;;;;;;5.00;2.00;;;;;19.44;59.50;101362.97;5124579;27;45332;-89
2021/08/19 03:11:01;;;;;;;;;3.00;1.67;;;;;19.47;59.20;101365.63;5106883;27;47648;-88
2021/08/19 03:13:27;;;;;;;;;2.33;2.00;;;;;19.44;59.50;101365.63;5104901;27;45411;-91
2021/08/19 03:15:52;;;;;;;;;2.00;2.00;;;;;19.49;59.38;101366.50;5123187;27;45490;-88
2021/08/19 03:18:17;;;;;;;;;4.00;1.33;;;;;19.49;59.46;101371.81;5124039;27;45389;-91
2021/08/19 03:20:43;;;;;;;;;3.00;2.00;;;;;19.45;59.42;101362.09;5123397;27;45612;-91
2021/08/19 03:23:09;;;;;;;;;2.67;2.67;;;;;19.38;59.42;101361.25;5123207;27;45412;-90
2021/08/19 03:25:34;;;;;;;;;2.33;2.00;;;;;19.47;59.46;101375.41;5123448;27;45535;-91
2021/08/19 03:28:04;;;;;;;;;2.33;2.33;;;;;19.38;59.54;101355.03;5124360;27;45342;-85
2021/08/19 03:30:30;;;;;;;;;4.00;2.67;;;;;19.35;59.58;101352.41;5124635;27;46277;-88
2021/08/19 03:32:56;;;;;;;;;2.33;2.00;;;;;19.33;59.68;101342.63;5105934;27;45496;-90
2021/08/19 03:35:21;;;;;;;;;1.67;1.67;;;;;19.45;59.48;101362.09;5125617;27;45232;-89
2021/08/19 03:37:47;;;;;;;;;2.00;2.00;;;;;19.42;59.51;101362.09;5130131;27;45173;-87
2021/08/19 03:40:13;;;;;;;;;1.00;1.00;;;;;19.43;59.50;101369.22;5134165;27;45346;-87
2021/08/19 03:42:38;;;;;;;;;3.00;2.67;;;;;19.42;59.55;101362.09;5131036;27;45361;-88
2021/08/19 03:45:11;;;;;;;;;4.33;2.67;;;;;19.41;59.43;101350.56;5130371;27;44750;-88
2021/08/19 03:47:37;;;;;;;;;3.67;2.33;;;;;19.42;59.42;101362.09;5129210;27;45158;-88
2021/08/19 03:50:03;;;;;;;;;4.00;3.33;;;;;19.39;59.45;101347.03;5110864;27;46146;-88
2021/08/19 03:52:29;;;;;;;;;2.00;2.00;;;;;19.47;59.30;101354.97;5139258;27;45322;-89
2021/08/19 03:54:57;;;;;;;;;3.00;3.00;;;;;19.38;59.45;101341.72;5141859;27;44894;-87
2021/08/19 03:57:22;;;;;;;;;1.67;1.67;;;;;19.40;59.40;101348.78;5141498;27;44709;-87
2021/08/19 03:59:47;;;;;;;;;1.33;0.33;;;;;19.40;59.49;101345.25;5142225;27;45258;-88
2021/08/19 04:02:13;;;;;;;;;1.67;1.67;;;;;19.42;59.47;101354.09;5141976;27;45378;-86
2021/08/19 04:04:39;;;;;;;;;3.00;3.00;;;;;19.34;59.36;101340.84;5140753;27;44714;-86
2021/08/19 04:07:04;;;;;;;;;7.00;3.00;;;;;19.40;59.67;101358.56;5143149;27;45250;-86
2021/08/19 04:09:29;;;;;;;;;2.67;2.67;;;;;19.39;59.39;101359.47;5143127;27;45079;-86
2021/08/19 04:11:55;;;;;;;;;4.33;2.00;;;;;19.30;59.57;101340.00;5141780;27;45209;-87
2021/08/19 04:14:20;;;;;;;;;5.00;3.33;;;;;19.30;59.74;101350.69;5142157;27;45263;-85
2021/08/19 04:16:46;;;;;;;;;4.33;3.67;;;;;19.31;59.60;101347.09;5140790;27;45362;-85
2021/08/19 04:19:11;;;;;;;;;3.00;3.00;;;;;19.35;59.46;101353.31;5140448;27;45023;-86
2021/08/19 04:21:36;;;;;;;;;2.33;2.33;;;;;19.30;60.14;101345.34;5139651;27;45244;-85
2021/08/19 04:24:02;;;;;;;;;5.00;4.00;;;;;19.32;59.62;101348.88;5138671;27;45264;-89
2021/08/19 04:26:28;;;;;;;;;2.33;2.33;;;;;19.29;59.68;101348.91;5139185;27;45424;-86
2021/08/19 04:28:53;;;;;;;;;3.00;3.00;;;;;19.26;59.93;101340.94;5133041;27;45470;-90
2021/08/19 04:31:19;;;;;;;;;5.00;3.00;;;;;19.38;59.52;101353.25;5129829;27;45476;-86
2021/08/19 04:33:44;;;;;;;;;3.00;3.00;;;;;19.30;59.53;101342.69;5129086;27;45445;-87
2021/08/19 04:36:10;;;;;;;;;2.67;2.67;;;;;19.36;59.74;101357.72;5129502;27;45278;-88
2021/08/19 04:38:35;;;;;;;;;4.00;2.00;;;;;19.29;59.50;101340.91;5128488;27;45354;-87
2021/08/19 04:41:01;;;;;;;;;4.33;3.00;;;;;19.29;59.72;101343.56;5128815;27;45314;-87
2021/08/19 04:43:27;;;;;;;;;3.33;3.33;;;;;19.35;59.27;101352.41;5128507;27;45335;-88
2021/08/19 04:45:52;;;;;;;;;5.00;4.00;;;;;19.28;59.61;101339.16;5127177;27;45291;-88
2021/08/19 04:48:18;;;;;;;;;3.00;3.00;;;;;19.27;59.95;101344.50;5126286;27;46087;-87
2021/08/19 04:50:43;;;;;;;;;4.33;3.00;;;;;19.20;59.70;101330.34;5127132;27;45254;-88
2021/08/19 04:53:08;;;;;;;;;4.00;3.33;;;;;19.20;59.49;101341.00;5127712;27;45327;-91
2021/08/19 04:55:34;;;;;;;;;3.33;3.33;;;;;19.27;59.68;101356.03;5109150;27;45142;-87
2021/08/19 04:57:59;;;;;;;;;5.00;5.00;;;;;19.30;59.69;101361.34;5126300;27;45309;-86
2021/08/19 05:00:25;;;;;;;;;4.33;3.67;;;;;19.29;59.73;101369.34;5122419;27;45306;-87
2021/08/19 05:02:50;;;;;;;;;4.67;4.00;;;;;19.21;59.95;101351.63;5122629;27;45269;-91
2021/08/19 05:05:15;;;;;;;;;3.33;3.00;;;;;19.20;59.86;101354.31;5106006;27;45369;-88
2021/08/19 05:07:41;;;;;;;;;2.67;2.67;;;;;19.27;60.07;101366.69;5126129;27;46499;-94
2021/08/19 05:10:07;;;;;;;;;3.33;3.33;;;;;19.21;60.04;101364.97;5107351;27;45407;-90
2021/08/19 05:12:32;;;;;;;;;2.67;2.67;;;;;19.24;59.87;101374.72;5125838;27;45199;-91
2021/08/19 05:14:58;;;;;;;;;4.00;3.33;;;;;19.25;59.92;101371.16;5125071;27;45434;-89
2021/08/19 05:17:23;;;;;;;;;4.00;2.33;;;;;19.26;59.90;101374.69;5124547;27;45384;-92
2021/08/19 05:19:48;;;;;;;;;3.67;3.67;;;;;19.22;60.02;101368.53;5106093;27;45429;-89
2021/08/19 05:22:15;;;;;;;;;5.00;3.00;;;;;19.25;60.14;101370.28;5123309;27;45803;-90
2021/08/19 05:24:41;;;;;;;;;4.00;4.00;;;;;19.25;60.12;101370.28;5103628;27;45434;-89
2021/08/19 05:27:06;;;;;;;;;3.00;2.33;;;;;19.26;60.14;101370.25;5121881;27;45709;-92
2021/08/19 05:29:32;;;;;;;;;3.67;3.00;;;;;19.29;60.30;101370.22;5122021;27;45390;-88
2021/08/19 05:31:57;;;;;;;;;3.67;3.67;;;;;19.26;60.21;101369.38;5120766;27;45714;-87
2021/08/19 05:34:22;;;;;;;;;5.33;3.00;;;;;19.23;60.21;101361.41;5121504;27;45326;-89
2021/08/19 05:36:48;;;;;;;;;6.00;3.33;;;;;19.25;60.08;101370.28;5104689;27;47524;-89
2021/08/19 05:39:13;;;;;;;;;3.33;3.33;;;;;19.26;60.29;101370.25;5127577;27;44670;-89
2021/08/19 05:41:38;;;;;;;;;4.00;4.00;;;;;19.30;60.21;101376.44;5127408;27;45298;-90
2021/08/19 05:44:04;;;;;;;;;5.00;4.33;;;;;19.24;60.11;101372.06;5125114;27;45333;-89
2021/08/19 05:46:30;;;;;;;;;5.33;4.67;;;;;19.28;59.83;101376.47;5123655;27;45246;-90
2021/08/19 05:48:55;;;;;;;;;3.67;3.67;;;;;19.27;60.40;101372.00;5121959;27;45254;-88
2021/08/19 05:51:20;;;;;;;;;4.00;4.00;;;;;19.31;60.21;101386.22;5103915;27;45235;-88
2021/08/19 05:53:46;;;;;;;;;7.67;4.33;;;;;19.29;60.26;101386.22;5121524;27;45168;-88
2021/08/19 05:56:11;;;;;;;;;3.33;3.33;;;;;19.32;60.11;101385.31;5121341;27;46153;-91
2021/08/19 05:58:37;;;;;;;;;3.00;3.00;;;;;19.28;59.88;101383.56;5100743;27;45623;-81
2021/08/19 06:01:03;;;;;;;;;3.00;3.00;;;;;19.31;60.23;101384.41;5108848;27;45433;-82
2021/08/19 06:03:29;;;;;;;;;5.00;3.00;;;;;19.30;60.17;101388.00;5097635;27;45341;-79
2021/08/19 06:05:54;;;;;;;;;4.67;4.33;;;;;19.32;60.32;101380.88;5097176;27;46391;-81
2021/08/19 06:08:20;;;;;;;;;5.00;4.00;;;;;19.28;60.19;101380.91;5097162;27;45416;-79
2021/08/19 06:10:46;;;;;;;;;6.00;3.00;;;;;19.33;60.22;101387.94;5097287;27;45417;-79
2021/08/19 06:13:11;;;;;;;;;6.00;4.00;;;;;19.35;60.55;101392.41;5097191;27;45251;-81
2021/08/19 06:15:37;;;;;;;;;6.33;4.00;;;;;19.33;60.18;101382.63;5096721;27;46989;-79
2021/08/19 06:18:03;;;;;;;;;4.00;3.00;;;;;19.31;60.12;101384.41;5096910;27;45497;-79
2021/08/19 06:20:29;;;;;;;;;5.00;4.00;;;;;19.29;60.21;101385.34;5099330;27;45237;-80
2021/08/19 06:22:55;;;;;;;;;6.67;4.67;;;;;19.25;60.47;101379.13;5100596;27;45340;-80
2021/08/19 06:25:21;;;;;;;;;5.33;3.67;;;;;19.26;60.44;101380.91;5100490;27;46346;-81
2021/08/19 06:27:47;;;;;;;;;5.33;5.33;;;;;19.26;60.61;101380.91;5082036;27;45409;-80
2021/08/19 06:30:14;;;;;;;;;6.00;4.33;;;;;19.26;60.57;101378.25;5100312;27;45539;-81
2021/08/19 06:32:40;;;;;;;;;6.67;5.00;;;;;19.27;60.20;101377.34;5100578;27;45438;-79
2021/08/19 06:35:08;;;;;;;;;4.00;4.00;;;;;19.26;60.17;101386.25;5100278;27;46378;-78
2021/08/19 06:37:33;;;;;;;;;6.67;5.67;;;;;19.27;60.15;101388.00;5100500;27;45181;-78
2021/08/19 06:39:58;;;;;;;;;6.00;5.00;;;;;19.25;60.31;101384.47;5100493;27;45314;-78
2021/08/19 06:42:24;;;;;;;;;9.33;7.00;;;;;19.28;60.21;101386.22;5100532;27;45192;-78
2021/08/19 06:44:50;;;;;;;;;5.00;5.00;;;;;19.29;60.13;101380.88;5100515;27;45397;-86
2021/08/19 06:47:15;;;;;;;;;3.33;3.33;;;;;19.29;60.24;101378.22;5102693;27;45345;-83
2021/08/19 06:49:41;;;;;;;;;4.00;4.00;;;;;19.35;60.15;101379.06;5110403;27;45257;-84
2021/08/19 06:52:07;;;;;;;;;5.00;5.00;;;;;19.36;59.84;101376.38;5106505;27;45209;-82
2021/08/19 06:54:33;;;;;;;;;6.67;5.00;;;;;19.37;59.79;101378.16;5105931;27;47131;-86
2021/08/19 06:57:01;;;;;;;;;9.00;5.33;;;;;19.31;59.86;101379.09;5107768;27;45727;-87
2021/08/19 06:59:26;;;;;;;;;6.67;5.00;;;;;19.30;59.92;101377.34;5107450;27;45318;-84
2021/08/19 07:01:52;;;;;;;;;4.33;3.00;;;;;19.35;59.75;101387.97;5105423;27;45404;-88
2021/08/19 07:04:17;;;;;;;;;6.33;5.00;;;;;19.31;59.86;101375.56;5104099;27;45410;-86
2021/08/19 07:06:42;;;;;;;;;5.00;4.00;;;;;19.36;59.77;101380.81;5105424;27;45400;-88
2021/08/19 07:09:08;;;;;;;;;6.67;6.00;;;;;19.36;59.54;101394.16;5106428;27;45363;-87
2021/08/19 07:11:33;;;;;;;;;4.00;4.00;;;;;19.35;59.76;101384.41;5085971;27;45231;-86
2021/08/19 07:13:59;;;;;;;;;6.33;5.00;;;;;19.34;59.50;101383.50;5101497;27;46142;-88
2021/08/19 07:16:25;;;;;;;;;6.00;4.33;;;;;19.36;59.69;101380.81;5101040;27;45404;-86
2021/08/19 07:18:50;;;;;;;;;6.00;5.67;;;;;19.38;59.56;101387.91;5100871;27;45385;-85
2021/08/19 07:21:16;;;;;;;;;4.67;4.67;;;;;19.35;59.75;101376.41;5100539;27;45387;-84
2021/08/19 07:23:41;;;;;;;;;6.00;4.67;;;;;19.39;59.52;101378.16;5081924;27;47445;-86
2021/08/19 07:26:07;;;;;;;;;6.00;5.00;;;;;19.40;59.71;101379.91;5100396;27;45249;-85
2021/08/19 07:28:32;;;;;;;;;3.33;3.33;;;;;19.41;59.51;101379.00;5081865;27;45261;-87
2021/08/19 07:30:57;;;;;;;;;5.33;5.33;;;;;19.43;59.54;101377.22;5100261;27;45451;-87
2021/08/19 07:33:23;;;;;;;;;5.00;4.33;;;;;19.46;59.78;101382.50;5100938;27;45539;-85
2021/08/19 07:35:49;;;;;;;;;5.33;5.00;;;;;19.45;59.50;101378.09;5104161;27;45465;-83
2021/08/19 07:38:18;;;;;;;;;3.00;3.00;;;;;19.49;59.20;101373.59;5084611;27;45830;-84
2021/08/19 07:40:44;;;;;;;;;4.67;4.67;;;;;19.52;59.05;101371.78;5104191;27;44902;-84
2021/08/19 07:43:09;;;;;;;;;7.00;5.67;;;;;19.50;59.04;101370.91;5102924;27;46456;-88
2021/08/19 07:45:34;;;;;;;;;5.00;5.00;;;;;19.56;59.01;101368.19;5102671;27;45421;-87
2021/08/19 07:48:11;;;;;;;;;8.67;6.33;;;;;19.61;59.16;101375.25;5104705;27;45201;-84
2021/08/19 07:50:37;;;;;;;;;4.00;4.00;;;;;19.60;59.17;101368.16;5104642;27;45285;-86
2021/08/19 07:53:04;;;;;;;;;8.33;6.00;;;;;19.63;59.39;101376.16;5100450;27;46029;-85
2021/08/19 07:55:30;;;;;;;;;4.33;4.00;;;;;19.66;59.32;101379.66;5099918;27;45410;-84
2021/08/19 07:57:55;;;;;;;;;4.67;4.67;;;;;19.66;59.06;101370.78;5099600;27;45326;-87
2021/08/19 08:00:23;;;;;;;;;6.00;6.00;;;;;19.66;58.82;101374.31;5099868;27;45475;-88
2021/08/19 08:02:51;;;;;;;;;7.00;6.67;;;;;19.70;58.82;101377.84;5099533;27;46206;-87
2021/08/19 08:05:16;;;;;;;;;6.00;6.00;;;;;19.68;59.06;101371.63;5099132;27;45322;-86
2021/08/19 08:07:42;;;;;;;;;8.67;6.00;;;;;19.68;58.78;101376.97;5099618;27;45539;-88
2021/08/19 08:10:07;;;;;;;;;7.00;6.00;;;;;19.72;59.31;101376.03;5099808;27;45325;-88
2021/08/19 08:12:33;;;;;;;;;6.33;4.33;;;;;19.75;59.18;101381.34;5099134;27;46429;-83
2021/08/19 08:14:59;;;;;;;;;9.00;7.00;;;;;19.73;58.99;101377.81;5080893;27;45445;-84
2021/08/19 08:17:25;;;;;;;;;8.67;6.00;;;;;19.80;59.03;101389.28;5099545;27;45299;-84
2021/08/19 08:19:51;;;;;;;;;7.00;5.33;;;;;19.84;59.13;101387.50;5099711;27;45312;-88
2021/08/19 08:22:17;;;;;;;;;6.33;5.00;;;;;19.86;59.19;101391.03;5099248;27;45351;-87
2021/08/19 08:24:43;;;;;;;;;5.33;5.33;;;;;19.86;58.74;101385.69;5099635;27;45414;-84
2021/08/19 08:27:09;;;;;;;;;7.33;7.00;;;;;19.95;58.61;101396.22;5099803;27;45273;-88
2021/08/19 08:29:34;;;;;;;;;4.33;4.33;;;;;19.97;58.58;101389.09;5099522;27;45327;-88
2021/08/19 08:32:05;;;;;;;;;5.00;5.00;;;;;19.99;58.28;101389.06;5098874;27;46328;-86
2021/08/19 08:34:35;;;;;;;;;4.00;4.00;;;;;20.01;58.60;101392.59;5099045;27;45343;-85
2021/08/19 08:37:01;;;;;;;;;8.33;5.00;;;;;20.01;58.64;101395.28;5099244;27;45284;-89
2021/08/19 08:39:28;;;;;;;;;7.33;5.67;;;;;19.99;58.59;101397.06;5099493;27;45316;-85
2021/08/19 08:41:53;;;;;;;;;7.33;6.00;;;;;19.96;58.13;101391.78;5098713;27;46130;-86
2021/08/19 08:44:20;;;;;;;;;5.67;4.67;;;;;19.99;58.03;101402.41;5098426;27;45425;-84
2021/08/19 08:46:47;;;;;;;;;6.33;5.00;;;;;19.96;58.11;101411.38;5099042;27;45330;-87
2021/08/19 08:49:14;;;;;;;;;8.33;6.00;;;;;19.94;58.46;101410.50;5099211;27;45386;-86
2021/08/19 08:51:47;;;;;;;;;7.00;5.67;;;;;19.94;58.39;101410.50;5099139;27;46371;-87
2021/08/19 08:54:12;;;;;;;;;7.00;4.33;;;;;19.93;58.17;101402.47;5099350;27;45244;-84
2021/08/19 08:56:37;;;;;;;;;6.00;5.00;;;;;19.89;58.05;101398.97;5081434;27;45289;-84
2021/08/19 08:59:03;;;;;;;;;5.00;5.00;;;;;19.90;57.97;101403.44;5099240;27;45349;-87
2021/08/19 09:01:29;;;;;;;;;6.33;6.00;;;;;19.92;58.01;101412.28;5098795;27;45435;-87
2021/08/19 09:03:56;;;;;;;;;4.00;4.00;;;;;19.92;58.07;101416.75;5099061;27;45447;-88
2021/08/19 09:06:36;;;;;;;;;4.00;4.00;;;;;19.90;57.76;101411.44;5101034;27;45287;-84
2021/08/19 09:09:14;;;;;;;;;5.00;5.00;;;;;19.89;57.72;101410.53;5101702;27;45576;-85
2021/08/19 09:11:42;;;;;;;;;5.00;4.00;;;;;19.89;57.72;101423.00;5109608;27;46308;-85
2021/08/19 09:14:16;;;;;;;;;6.00;6.00;;;;;19.90;57.38;101411.44;5103619;27;45339;-86
2021/08/19 09:16:45;;;;;;;;;7.67;5.33;;;;;19.90;57.78;101419.44;5099888;27;45247;-87
2021/08/19 09:19:11;;;;;;;;;8.33;5.00;;;;;19.88;57.72;101410.56;5100134;27;45480;-84
2021/08/19 09:21:46;;;;;;;;;3.00;3.00;;;;;19.93;57.72;101419.38;5100265;27;46128;-84
2021/08/19 09:24:14;;;;;;;;;5.67;4.33;;;;;19.94;57.74;101414.94;5102800;27;45360;-89
2021/08/19 09:26:40;;;;;;;;;4.00;3.00;;;;;19.89;57.92;101412.31;5099276;27;45824;-88
2021/08/19 09:29:19;;;;;;;;;4.00;3.00;;;;;19.94;57.79;101415.84;5098868;27;45323;-84
2021/08/19 09:31:47;;;;;;;;;6.33;4.33;;;;;19.93;57.38;101419.38;5098198;27;45641;-88
2021/08/19 09:34:13;;;;;;;;;7.00;5.33;;;;;19.91;57.48;101421.19;5098865;27;45326;-84
2021/08/19 09:36:40;;;;;;;;;2.00;2.00;;;;;19.87;57.45;101408.78;5099211;27;45272;-88
2021/08/19 09:39:06;;;;;;;;;7.33;4.00;;;;;19.89;57.35;101413.22;5098833;27;45204;-87
2021/08/19 09:41:48;;;;;;;;;4.00;4.00;;;;;19.86;57.38;101423.03;5099952;27;46215;-84
2021/08/19 09:44:35;;;;;;;;;4.33;3.00;;;;;19.83;57.49;101407.94;5098739;27;45230;-85
2021/08/19 09:47:03;;;;;;;;;4.00;4.00;;;;;19.83;57.25;101407.03;5098829;27;45375;-86
2021/08/19 09:49:34;;;;;;;;;3.33;3.33;;;;;19.86;57.21;101405.22;5098588;27;45306;-86
2021/08/19 09:52:11;;;;;;;;;4.00;3.00;;;;;19.86;57.54;101412.38;5097857;27;46579;-86
2021/08/19 09:54:41;;;;;;;;;3.33;3.33;;;;;19.86;57.51;101412.38;5098809;27;45366;-89
2021/08/19 09:57:09;;;;;;;;;4.00;4.00;;;;;19.85;57.43;101407.91;5098309;27;45553;-85
2021/08/19 09:59:38;;;;;;;;;4.33;3.33;;;;;19.86;57.65;101401.69;5100107;27;45323;-89
2021/08/19 10:02:09;;;;;;;;;3.00;3.00;;;;;19.82;57.79;101394.63;5098571;27;46211;-85
2021/08/19 10:04:35;;;;;;;;;5.00;5.00;;;;;19.89;57.78;101412.31;5098418;27;45447;-87
2021/08/19 10:07:02;;;;;;;;;3.00;3.00;;;;;19.88;57.60;101410.56;5098037;27;45217;-84
2021/08/19 10:09:28;;;;;;;;;2.00;2.00;;;;;19.88;57.26;101410.56;5099043;27;45418;-85
2021/08/19 10:11:56;;;;;;;;;3.00;3.00;;;;;19.86;57.03;101407.88;5099132;27;46101;-83
2021/08/19 10:14:23;;;;;;;;;4.00;3.00;;;;;19.88;57.01;101413.22;5099151;27;45354;-87
2021/08/19 10:16:49;;;;;;;;;3.00;3.00;;;;;19.85;56.91;101406.13;5098086;27;45528;-84
2021/08/19 10:19:38;;;;;;;;;3.67;3.67;;;;;19.85;57.06;101402.56;5098081;27;45347;-86
2021/08/19 10:22:08;;;;;;;;;2.00;2.00;;;;;19.83;57.24;101399.03;5097679;27;47002;-84
2021/08/19 10:24:37;;;;;;;;;3.00;3.00;;;;;19.84;57.30;101404.34;5098249;27;45287;-83
2021/08/19 10:27:10;;;;;;;;;2.33;2.33;;;;;19.85;57.08;101410.56;5098054;27;45260;-84
2021/08/19 10:29:42;;;;;;;;;2.33;2.33;;;;;19.86;57.03;101409.69;5097946;27;45371;-87
2021/08/19 10:32:27;;;;;;;;;3.00;3.00;;;;;19.86;57.46;101407.03;5098792;27;46621;-87
2021/08/19 10:34:56;;;;;;;;;5.00;2.00;;;;;19.86;57.11;101402.56;5099020;27;45486;-83
2021/08/19 10:37:41;;;;;;;;;3.00;3.00;;;;;19.87;56.97;101403.44;5099283;27;45425;-84
2021/08/19 10:40:31;;;;;;;;;3.00;2.33;;;;;19.88;57.13;101407.91;5099316;27;45364;-88
2021/08/19 10:43:25;;;;;;;;;4.00;3.00;;;;;19.92;56.97;101403.41;5097724;27;47507;-89
2021/08/19 10:46:07;;;;;;;;;4.00;4.00;;;;;19.95;57.09;101401.56;5095981;27;45475;-87
2021/08/19 10:48:50;;;;;;;;;3.00;2.33;;;;;19.98;56.76;101396.22;5097766;27;45263;-84
2021/08/19 10:51:17;;;;;;;;;2.00;2.00;;;;;20.03;57.18;101401.47;5098081;27;45444;-84
2021/08/19 10:53:43;;;;;;;;;3.00;3.00;;;;;20.05;56.70;101397.00;5096267;27;47390;-88
2021/08/19 10:56:09;;;;;;;;;3.00;3.00;;;;;20.10;56.68;101405.00;5097669;27;45368;-88
2021/08/19 10:58:41;;;;;;;;;2.00;2.00;;;;;20.10;56.67;101405.00;5097755;27;45359;-84
2021/08/19 11:01:17;;;;;;;;;4.00;2.33;;;;;20.10;56.50;101399.66;5103459;27;45276;-84
2021/08/19 11:03:47;;;;;;;;;3.00;3.00;;;;;20.11;56.27;101404.13;5108079;27;47016;-84
2021/08/19 11:06:17;;;;;;;;;3.00;3.00;;;;;20.09;56.26;101396.13;5109640;27;45353;-84
2021/08/19 11:08:46;;;;;;;;;3.00;2.00;;;;;20.07;56.42;101408.56;5107200;27;45215;-84
2021/08/19 11:11:24;;;;;;;;;3.00;2.00;;;;;20.07;56.37;101403.25;5105386;27;45365;-83
2021/08/19 11:13:56;;;;;;;;;4.33;2.00;;;;;20.07;56.23;101395.22;5103458;27;46978;-85
2021/08/19 11:16:22;;;;;;;;;3.00;3.00;;;;;20.09;56.20;101397.91;5103752;27;45364;-83
2021/08/19 11:18:47;;;;;;;;;5.33;3.33;;;;;20.09;56.06;101401.47;5113036;27;45316;-84
2021/08/19 11:21:13;;;;;;;;;3.67;3.67;;;;;20.10;56.09;101394.31;5093786;27;45388;-83
2021/08/19 11:23:41;;;;;;;;;2.00;2.00;;;;;20.15;55.99;101402.28;5103444;27;45816;-82